»·PEaware :: N22CM KSBA-KBUR

N22CM :: KSBA-KBUR

FLIGHT INFORMATION

Flight Status: Arrived
Operator: Privately registered:
United States
More flights under this callsign
Pilot: Anthony H. (22875)
Aircraft: CESSNA 172 SKYHAWK
(C172)
More flights by this aircraft type
Origin: KSBA Santa Barbara Mun
United States
Destination: KBUR Bob Hope-Burbank
United States
More flights between these airports :: More routes between these airports
Route: KSBA KBUR
File this flight plan on PilotEdge
Remarks: CAT 8
Altitude:
(Current/Filed)
7,500ft
Speed:
(Current/Filed)
110kts
Departed: 03-Feb-19 04:57 PM
Arrived: 03-Feb-19 06:40 PM
Distance/Time
Traveled:
74nm/1:42
Distance/Time
To Go:
Arrived

Flight Plot

Page will automatically refresh every two minutes.

Flight plan parsing failed; only flown route is shown


Map Options




Map Legend


Flown Route
Filed Route
Departure Airport
Arrival Airport
Navaid (VOR, NDB)
Fix

Horizontal Profiles

Position Reports

Time Latitude Longitude Heading Altitude Ground
Speed
03-Feb-19 16:44 34.422664 -119.835593 340 11ft 0kts
03-Feb-19 16:45 34.422664 -119.835593 340 11ft 0kts
03-Feb-19 16:46 34.422664 -119.835593 340 11ft 0kts
03-Feb-19 16:47 34.422664 -119.835593 340 11ft 0kts
03-Feb-19 16:48 34.422664 -119.835593 340 11ft 0kts
03-Feb-19 16:49 34.422664 -119.835593 340 11ft 0kts
03-Feb-19 16:50 34.422664 -119.835593 340 11ft 0kts
03-Feb-19 16:51 34.422664 -119.835593 340 11ft 0kts
03-Feb-19 16:52 34.422777 -119.836691 266 13ft 12kts
03-Feb-19 16:53 34.426941 -119.838429 345 14ft 18kts
03-Feb-19 16:54 34.430686 -119.839834 244 14ft 0kts
03-Feb-19 16:55 34.430560 -119.840140 243 14ft 0kts
03-Feb-19 16:56 34.425347 -119.838741 166 89ft 74kts
03-Feb-19 16:57 34.402360 -119.830039 162 606ft 99kts
03-Feb-19 16:58 34.375821 -119.819768 162 1159ft 100kts
03-Feb-19 16:59 34.347684 -119.808883 162 1403ft 117kts
03-Feb-19 17:00 34.315626 -119.796494 162 1400ft 121kts
03-Feb-19 17:01 34.422664 -119.835593 340 11ft 0kts
03-Feb-19 17:02 34.422664 -119.835593 340 11ft 0kts
03-Feb-19 17:03 34.422664 -119.835593 340 11ft 0kts
03-Feb-19 17:04 34.422664 -119.835593 340 11ft 0kts
03-Feb-19 17:05 34.422664 -119.835593 340 11ft 0kts
03-Feb-19 17:07 34.422664 -119.835593 340 11ft 0kts
03-Feb-19 17:08 34.422664 -119.835593 340 11ft 0kts
03-Feb-19 17:09 34.422664 -119.835593 340 11ft 0kts
03-Feb-19 17:10 34.422664 -119.835593 340 11ft 0kts
03-Feb-19 17:11 34.422951 -119.836346 277 12ft 6kts
03-Feb-19 17:12 34.424006 -119.837518 345 12ft 13kts
03-Feb-19 17:13 34.427102 -119.838485 342 13ft 3kts
03-Feb-19 17:14 34.430686 -119.839876 235 14ft 0kts
03-Feb-19 17:15 34.427056 -119.839197 165 38ft 73kts
03-Feb-19 17:16 34.408747 -119.832383 161 485ft 72kts
03-Feb-19 17:17 34.389618 -119.824982 161 1111ft 72kts
03-Feb-19 17:18 34.376732 -119.819996 162 1477ft 69kts
03-Feb-19 17:19 34.422664 -119.835593 340 11ft 0kts
03-Feb-19 17:20 34.422664 -119.835593 340 11ft 0kts
03-Feb-19 17:21 34.422664 -119.835593 340 11ft 0kts
03-Feb-19 17:22 34.422664 -119.835593 340 11ft 0kts
03-Feb-19 17:23 34.422664 -119.835593 340 11ft 0kts
03-Feb-19 17:24 34.422664 -119.835593 340 11ft 0kts
03-Feb-19 17:25 34.422707 -119.836901 264 13ft 11kts
03-Feb-19 17:26 34.426672 -119.838343 345 14ft 20kts
03-Feb-19 17:26 34.429693 -119.839269 345 14ft 27kts
03-Feb-19 17:28 34.427312 -119.839160 161 34ft 61kts
03-Feb-19 17:29 34.409992 -119.832504 161 920ft 68kts
03-Feb-19 17:29 34.396118 -119.827095 161 1378ft 61kts
03-Feb-19 17:30 34.377049 -119.819696 162 1495ft 72kts
03-Feb-19 17:31 34.422664 -119.835593 340 11ft 0kts
03-Feb-19 17:32 34.422664 -119.835593 340 11ft 0kts
03-Feb-19 17:33 34.422664 -119.835593 340 11ft 0kts
03-Feb-19 17:34 34.422664 -119.835593 340 11ft 0kts
03-Feb-19 17:35 34.422664 -119.835593 340 11ft 0kts
03-Feb-19 17:36 34.422664 -119.835593 340 11ft 0kts
03-Feb-19 17:37 34.422752 -119.835706 302 11ft 4kts
03-Feb-19 17:38 34.423652 -119.837535 341 12ft 7kts
03-Feb-19 17:39 34.427178 -119.838507 345 13ft 1kts
03-Feb-19 17:40 34.430634 -119.839955 244 14ft 0kts
03-Feb-19 17:41 34.430579 -119.840099 244 14ft 0kts
03-Feb-19 17:42 34.418760 -119.837265 172 386ft 89kts
03-Feb-19 17:43 34.393098 -119.838733 193 973ft 87kts
03-Feb-19 17:44 34.371600 -119.851316 217 1483ft 88kts
03-Feb-19 17:45 34.422664 -119.835593 340 11ft 0kts
03-Feb-19 17:46 34.422664 -119.835593 340 11ft 0kts
03-Feb-19 17:47 34.422664 -119.835593 340 11ft 0kts
03-Feb-19 17:48 34.422664 -119.835593 340 11ft 0kts
03-Feb-19 17:49 34.422664 -119.835593 340 11ft 0kts
03-Feb-19 17:50 34.422664 -119.835593 340 11ft 0kts
03-Feb-19 17:51 34.424623 -119.837716 345 13ft 20kts
03-Feb-19 17:52 34.429424 -119.839158 346 14ft 30kts
03-Feb-19 17:53 34.430662 -119.839946 242 14ft 0kts
03-Feb-19 17:54 34.430542 -119.840201 223 14ft 4kts
03-Feb-19 17:55 34.413988 -119.835302 161 562ft 88kts
03-Feb-19 17:56 34.389627 -119.825606 161 1248ft 93kts
03-Feb-19 17:57 34.369968 -119.807815 79 1633ft 100kts
03-Feb-19 17:58 34.378789 -119.777507 69 2261ft 102kts
03-Feb-19 17:59 34.388888 -119.744147 69 3094ft 107kts
03-Feb-19 18:00 34.398880 -119.711095 69 4002ft 102kts
03-Feb-19 18:01 34.401401 -119.677654 95 4875ft 101kts
03-Feb-19 18:02 34.397270 -119.644280 99 5713ft 100kts
03-Feb-19 18:03 34.392543 -119.611753 99 6505ft 99kts
03-Feb-19 18:04 34.387699 -119.578931 99 7279ft 99kts
03-Feb-19 18:05 34.382336 -119.542805 99 7500ft 117kts
03-Feb-19 18:06 34.376731 -119.505073 99 7499ft 116kts
03-Feb-19 18:07 34.371183 -119.467796 99 7499ft 109kts
03-Feb-19 18:08 34.365813 -119.431761 99 7499ft 108kts
03-Feb-19 18:09 34.360478 -119.396039 99 7499ft 107kts
03-Feb-19 18:10 34.355141 -119.360374 99 7499ft 107kts
03-Feb-19 18:11 34.349763 -119.324518 100 7499ft 107kts
03-Feb-19 18:12 34.344408 -119.288885 100 7499ft 107kts
03-Feb-19 18:13 34.339124 -119.253750 100 7555ft 105kts
03-Feb-19 18:14 34.333469 -119.216139 100 7557ft 123kts
03-Feb-19 18:15 34.327231 -119.174839 100 7555ft 126kts
03-Feb-19 18:16 34.320877 -119.132919 100 7554ft 126kts
03-Feb-19 18:17 34.314525 -119.091116 100 7554ft 126kts
03-Feb-19 18:18 34.308175 -119.049429 100 7554ft 125kts
03-Feb-19 18:19 34.302266 -119.010817 100 7553ft 111kts
03-Feb-19 18:20 34.296708 -118.974503 100 7554ft 109kts
03-Feb-19 18:21 34.291150 -118.938270 100 7554ft 109kts
03-Feb-19 18:22 34.285579 -118.902108 100 7554ft 109kts
03-Feb-19 18:23 34.280006 -118.865931 100 7554ft 109kts
03-Feb-19 18:24 34.274435 -118.829815 100 7554ft 109kts
03-Feb-19 18:25 34.268857 -118.793728 100 7547ft 110kts
03-Feb-19 18:26 34.263255 -118.757565 100 7545ft 108kts
03-Feb-19 18:27 34.257690 -118.721701 100 7545ft 108kts
03-Feb-19 18:28 34.252109 -118.685807 100 7545ft 108kts
03-Feb-19 18:29 34.234439 -118.657305 135 7528ft 109kts
03-Feb-19 18:30 34.212897 -118.631708 135 7527ft 108kts
03-Feb-19 18:31 34.199501 -118.601775 85 7528ft 108kts
03-Feb-19 18:32 34.200204 -118.565186 89 7047ft 113kts
03-Feb-19 18:33 34.199872 -118.526937 90 6375ft 114kts
03-Feb-19 18:34 34.199416 -118.488930 90 5488ft 110kts
03-Feb-19 18:35 34.199335 -118.455810 86 3971ft 97kts
03-Feb-19 18:36 34.198955 -118.424836 90 1986ft 92kts
03-Feb-19 18:37 34.198342 -118.398527 89 1073ft 67kts
03-Feb-19 18:38 34.198056 -118.376594 89 951ft 66kts
03-Feb-19 18:39 34.197743 -118.360641 114 716ft 14kts
03-Feb-19 18:40 34.197080 -118.360291 179 715ft 0kts
03-Feb-19 18:41 34.196799 -118.360272 236 714ft 8kts
03-Feb-19 18:42 34.196899 -118.366246 226 721ft 8kts
03-Feb-19 18:43 34.196365 -118.367482 350 722ft 0kts
03-Feb-19 18:44 34.196368 -118.367482 358 722ft 0kts

Navigation Log

Ident Type
Flight plan parsing failed, navigation log unavailable